Ballinamallard, United Kingdom
Current Conditions -  °F | °C
As of 2:00 PM on Thursday 30 Oct 2014 (Local Time) from EISG Reporting Station
Overcast Overcast  
Wind Chill: 61°   Ceiling: 1500
Heat Index: 61°   Visibility: 6mi
Dew Point: 55°   Wind: 13mph
Humidity: 82%   Direction: 140°SE
Pressure: 29.74"   Gusts: NA
Location:  54.4°N, 7.58°W
Report Text: EISG 301400Z 14011KT 100V190 9999 BKN015 OVC022 16/13 Q1007
Loading
Personal Weather Stations






























Interactive Weather Map
Tropical Storm Tracking
New forecast layout! Learn more

10-Day Weather Forecast

Advertisements
Track Severe Weather on mobile